createdAt,value
2019-01-03T00:02:21.819Z,4.70
2019-01-03T00:05:03.921Z,4.70
2019-01-03T00:07:51.130Z,4.60
2019-01-03T00:10:38.127Z,4.60
2019-01-03T00:13:24.690Z,4.60
2019-01-03T00:16:25.149Z,4.70
2019-01-03T00:19:12.674Z,4.90
2019-01-03T00:21:59.877Z,5.00
2019-01-03T00:24:47.350Z,4.80
2019-01-03T00:27:41.198Z,4.80
2019-01-03T00:30:28.645Z,4.70
2019-01-03T00:33:13.521Z,4.60
2019-01-03T00:36:07.745Z,4.50
2019-01-03T00:38:50.098Z,4.60
2019-01-03T00:41:38.630Z,4.50
2019-01-03T00:44:16.122Z,4.50
2019-01-03T00:47:07.646Z,4.50
2019-01-03T00:50:01.970Z,4.50
2019-01-03T00:52:59.833Z,4.50
2019-01-03T00:55:45.745Z,4.50
2019-01-03T00:58:35.826Z,4.70
2019-01-03T01:01:23.293Z,4.70
2019-01-03T01:04:10.585Z,4.70
2019-01-03T01:06:47.854Z,4.70
2019-01-03T01:09:30.349Z,4.70
2019-01-03T01:12:21.683Z,4.70
2019-01-03T01:15:11.328Z,4.70
2019-01-03T01:17:58.577Z,4.70
2019-01-03T01:23:41.442Z,4.70
2019-01-03T01:26:24.919Z,4.70
2019-01-03T01:29:14.465Z,4.80
2019-01-03T01:32:11.690Z,4.90
2019-01-03T01:34:58.978Z,4.90
2019-01-03T01:37:56.758Z,4.80
2019-01-03T01:40:51.357Z,4.80
2019-01-03T01:43:43.482Z,4.80
2019-01-03T01:46:31.214Z,4.80
2019-01-03T01:49:24.581Z,4.70
2019-01-03T01:52:04.822Z,4.70
2019-01-03T01:55:05.633Z,4.70
2019-01-03T01:57:49.454Z,4.70
2019-01-03T02:00:41.069Z,4.70
2019-01-03T02:03:25.430Z,4.70
2019-01-03T02:06:24.361Z,4.70
2019-01-03T02:09:11.561Z,4.70
2019-01-03T02:11:59.072Z,4.80
2019-01-03T02:14:38.898Z,4.70
2019-01-03T02:17:26.302Z,4.70
2019-01-03T02:20:17.874Z,4.70
2019-01-03T02:23:03.685Z,4.60
2019-01-03T02:25:48.871Z,4.50
2019-01-03T02:28:40.163Z,4.50
2019-01-03T02:31:37.969Z,4.50
2019-01-03T02:34:29.516Z,4.40
2019-01-03T02:37:16.948Z,4.40
2019-01-03T02:40:02.050Z,4.40
2019-01-03T02:42:42.578Z,4.40
2019-01-03T02:45:41.649Z,4.40
2019-01-03T02:48:29.250Z,4.40
2019-01-03T02:51:14.726Z,4.30
2019-01-03T02:54:02.007Z,4.20
2019-01-03T02:56:56.834Z,4.20
2019-01-03T02:59:44.162Z,4.20
2019-01-03T03:02:26.560Z,4.20
2019-01-03T03:05:22.290Z,4.20
2019-01-03T03:08:19.438Z,4.20
2019-01-03T03:11:06.904Z,4.20
2019-01-03T03:14:05.145Z,4.30
2019-01-03T03:17:03.525Z,4.30
2019-01-03T03:19:50.939Z,4.30
2019-01-03T03:22:38.521Z,4.30
2019-01-03T03:25:27.649Z,4.30
2019-01-03T03:28:31.493Z,4.30
2019-01-03T03:31:18.835Z,4.20
2019-01-03T03:34:06.023Z,4.10
2019-01-03T03:36:57.466Z,4.00
2019-01-03T03:39:43.915Z,3.90
2019-01-03T03:42:31.580Z,3.80
2019-01-03T03:45:08.577Z,3.70
2019-01-03T03:48:12.538Z,3.70
2019-01-03T03:51:01.949Z,3.70
2019-01-03T03:53:49.157Z,3.70
2019-01-03T03:56:50.096Z,3.80
2019-01-03T03:59:37.381Z,3.80
2019-01-03T04:02:38.377Z,3.80
2019-01-03T04:05:42.107Z,3.80
2019-01-03T04:08:43.745Z,3.80
2019-01-03T04:11:31.283Z,3.80
2019-01-03T04:14:18.483Z,3.90
2019-01-03T04:17:05.714Z,4.20
2019-01-03T04:19:53.165Z,4.30
2019-01-03T04:22:40.339Z,4.40
2019-01-03T04:25:34.910Z,4.40
2019-01-03T04:28:18.625Z,4.40
2019-01-03T04:31:06.099Z,4.50
2019-01-03T04:33:54.592Z,4.50
2019-01-03T04:36:45.297Z,4.40
2019-01-03T04:39:46.309Z,4.40
2019-01-03T04:42:49.840Z,4.40
2019-01-03T04:45:37.024Z,4.40
2019-01-03T04:48:21.265Z,4.40
2019-01-03T04:51:10.723Z,4.40
2019-01-03T04:54:01.278Z,4.40
2019-01-03T04:56:48.655Z,4.40
2019-01-03T04:59:36.070Z,4.40
2019-01-03T05:02:34.311Z,4.40
2019-01-03T05:05:21.133Z,4.30
2019-01-03T05:08:08.027Z,4.30
2019-01-03T05:11:00.790Z,4.20
2019-01-03T05:13:50.937Z,4.30
2019-01-03T05:16:46.745Z,4.20
2019-01-03T05:19:47.183Z,4.20
2019-01-03T05:22:36.217Z,4.30
2019-01-03T05:25:24.858Z,4.40
2019-01-03T05:28:22.486Z,4.40
2019-01-03T05:31:08.400Z,4.40
2019-01-03T05:33:48.049Z,4.50
2019-01-03T05:36:39.333Z,4.50
2019-01-03T05:39:33.682Z,4.50
2019-01-03T05:42:20.107Z,4.50
2019-01-03T05:45:08.625Z,4.50
2019-01-03T05:48:00.159Z,4.50
2019-01-03T05:50:48.665Z,4.50
2019-01-03T05:53:40.342Z,4.50
2019-01-03T05:56:41.405Z,4.50
2019-01-03T05:59:32.756Z,4.40
2019-01-03T06:02:19.967Z,4.40
2019-01-03T06:05:07.205Z,4.40
2019-01-03T06:07:48.971Z,4.40
2019-01-03T06:10:37.618Z,4.40
2019-01-03T06:13:35.602Z,4.40
2019-01-03T06:16:23.138Z,4.50
2019-01-03T06:19:11.154Z,4.50
2019-01-03T06:21:57.622Z,4.50
2019-01-03T06:24:52.717Z,4.50
2019-01-03T06:27:42.997Z,4.40
2019-01-03T06:30:43.801Z,4.40
2019-01-03T06:33:31.128Z,4.40
2019-01-03T06:36:19.065Z,4.30
2019-01-03T06:39:07.575Z,4.20
2019-01-03T06:41:55.102Z,4.20
2019-01-03T06:44:52.802Z,4.10
2019-01-03T06:47:47.133Z,4.10
2019-01-03T06:50:34.254Z,4.20
2019-01-03T06:53:30.333Z,4.40
2019-01-03T06:56:17.510Z,4.40
2019-01-03T06:59:06.975Z,4.40
2019-01-03T07:01:54.407Z,4.50
2019-01-03T07:04:42.114Z,4.50
2019-01-03T07:07:29.213Z,4.50
2019-01-03T07:10:16.605Z,4.50
2019-01-03T07:13:15.786Z,4.50
2019-01-03T07:16:05.478Z,4.60
2019-01-03T07:19:00.037Z,4.60
2019-01-03T07:21:47.522Z,4.50
2019-01-03T07:24:34.783Z,4.50
2019-01-03T07:27:18.829Z,4.40
2019-01-03T07:30:06.153Z,4.30
2019-01-03T07:32:56.438Z,4.20
2019-01-03T07:35:43.978Z,4.10
2019-01-03T07:38:34.662Z,4.10
2019-01-03T07:41:22.126Z,4.00
2019-01-03T07:44:09.456Z,3.90
2019-01-03T07:47:05.513Z,3.80
2019-01-03T07:49:56.847Z,3.80
2019-01-03T07:52:45.355Z,3.70
2019-01-03T07:55:32.702Z,3.70
2019-01-03T07:58:26.420Z,3.80
2019-01-03T08:01:45.932Z,3.90
2019-01-03T08:04:35.731Z,4.10
2019-01-03T08:07:23.098Z,4.20
2019-01-03T08:10:10.337Z,4.40
2019-01-03T08:13:06.478Z,4.60
2019-01-03T08:15:54.948Z,4.60
2019-01-03T08:18:42.187Z,4.70
2019-01-03T08:21:30.694Z,4.70
2019-01-03T08:24:25.247Z,4.70
2019-01-03T08:27:08.581Z,4.70
2019-01-03T08:29:59.923Z,4.70
2019-01-03T08:32:47.205Z,4.70
2019-01-03T08:35:45.689Z,4.70
2019-01-03T08:38:40.348Z,4.80
2019-01-03T08:41:27.833Z,4.70
2019-01-03T08:44:14.977Z,4.70
2019-01-03T08:47:16.177Z,4.80
2019-01-03T08:50:03.717Z,4.80
2019-01-03T08:52:51.418Z,4.80
2019-01-03T08:55:38.789Z,4.90
2019-01-03T08:58:26.173Z,4.90
2019-01-03T09:01:13.318Z,4.90
2019-01-03T09:04:05.813Z,4.80
2019-01-03T09:06:58.783Z,4.90
2019-01-03T09:09:46.245Z,5.00
2019-01-03T09:12:34.759Z,5.10
2019-01-03T09:15:22.430Z,5.10
2019-01-03T09:18:12.838Z,5.10
2019-01-03T09:21:01.543Z,5.20
2019-01-03T09:23:49.127Z,5.20
2019-01-03T09:26:43.911Z,5.30
2019-01-03T09:29:29.485Z,5.30
2019-01-03T09:32:16.738Z,5.40
2019-01-03T09:35:17.258Z,5.50
2019-01-03T09:38:01.045Z,5.60
2019-01-03T09:40:48.045Z,5.60
2019-01-03T09:43:35.669Z,5.70
2019-01-03T09:46:05.110Z,5.70
2019-01-03T09:48:34.540Z,5.60
2019-01-03T09:51:03.954Z,5.70
2019-01-03T09:53:33.385Z,5.70
2019-01-03T09:56:02.798Z,5.70
2019-01-03T09:58:32.225Z,5.80
2019-01-03T10:01:01.653Z,5.80
2019-01-03T10:03:31.061Z,5.90
2019-01-03T10:06:00.561Z,6.00
2019-01-03T10:08:30.029Z,6.00
2019-01-03T10:10:59.413Z,6.00
2019-01-03T10:13:28.849Z,6.10
2019-01-03T10:15:58.445Z,6.00
2019-01-03T10:18:27.865Z,6.10
2019-01-03T10:20:57.300Z,6.10
2019-01-03T10:23:26.745Z,6.10
2019-01-03T10:25:56.146Z,6.10
2019-01-03T10:28:25.861Z,6.20
2019-01-03T10:30:55.329Z,6.20
2019-01-03T10:33:24.780Z,6.20
2019-01-03T10:35:54.208Z,6.20
2019-01-03T10:38:24.623Z,6.20
2019-01-03T10:40:54.046Z,6.10
2019-01-03T10:43:23.465Z,6.00
2019-01-03T10:45:52.877Z,6.00
2019-01-03T10:48:22.384Z,5.90
2019-01-03T10:50:51.821Z,6.00
2019-01-03T10:53:21.306Z,6.00
2019-01-03T10:55:50.770Z,6.20
2019-01-03T10:58:20.213Z,6.30
2019-01-03T11:00:49.625Z,6.60
2019-01-03T11:03:19.115Z,6.80
2019-01-03T11:05:48.590Z,6.80
2019-01-03T11:08:18.071Z,6.60
2019-01-03T11:10:47.648Z,6.50
2019-01-03T11:13:17.075Z,6.30
2019-01-03T11:15:46.505Z,6.30
2019-01-03T11:18:15.949Z,6.20
2019-01-03T11:20:45.369Z,6.20
2019-01-03T11:23:14.805Z,6.10
2019-01-03T11:25:44.232Z,6.10
2019-01-03T11:28:13.650Z,6.10
2019-01-03T11:30:43.073Z,6.10
2019-01-03T11:33:12.545Z,6.20
2019-01-03T11:35:42.006Z,6.20
2019-01-03T11:38:11.437Z,6.20
2019-01-03T11:40:40.857Z,6.10
2019-01-03T11:43:10.305Z,6.10
2019-01-03T11:45:39.734Z,6.20
2019-01-03T11:48:09.177Z,6.30
2019-01-03T11:50:38.637Z,6.20
2019-01-03T11:53:08.077Z,6.20
2019-01-03T11:55:37.565Z,6.20
2019-01-03T11:58:07.050Z,6.30
2019-01-03T12:00:36.618Z,6.30
2019-01-03T12:03:06.078Z,6.50
2019-01-03T12:05:35.497Z,6.60
2019-01-03T12:08:04.911Z,6.80
2019-01-03T12:10:34.441Z,7.00
2019-01-03T12:13:04.114Z,7.10
2019-01-03T12:15:33.537Z,7.10
2019-01-03T12:18:02.963Z,7.00
2019-01-03T12:20:32.365Z,6.90
2019-01-03T12:23:01.850Z,6.80
2019-01-03T12:25:31.333Z,6.70
2019-01-03T12:28:00.986Z,6.70
2019-01-03T12:30:30.405Z,6.70
2019-01-03T12:32:59.813Z,6.70
2019-01-03T12:35:29.243Z,6.70
2019-01-03T12:37:58.629Z,6.70
2019-01-03T12:40:28.049Z,6.60
2019-01-03T12:42:57.488Z,6.50
2019-01-03T12:45:26.920Z,6.50
2019-01-03T12:47:56.338Z,6.50
2019-01-03T12:50:25.753Z,6.60
2019-01-03T12:52:55.156Z,6.60
2019-01-03T12:55:24.557Z,6.70
2019-01-03T12:57:53.990Z,6.80
2019-01-03T13:00:23.403Z,6.80
2019-01-03T13:02:52.818Z,6.90
2019-01-03T13:05:22.237Z,7.00
2019-01-03T13:07:51.670Z,6.90
2019-01-03T13:10:21.068Z,6.80
2019-01-03T13:12:50.717Z,6.70
2019-01-03T13:15:21.115Z,6.70
2019-01-03T13:17:50.626Z,6.70
2019-01-03T13:20:20.028Z,6.90
2019-01-03T13:22:49.437Z,7.10
2019-01-03T13:25:18.885Z,7.20
2019-01-03T13:27:48.354Z,7.10
2019-01-03T13:30:17.783Z,7.00
2019-01-03T13:32:47.204Z,7.00
2019-01-03T13:35:16.610Z,7.00
2019-01-03T13:37:46.012Z,7.00
2019-01-03T13:40:15.426Z,7.00
2019-01-03T13:42:45.131Z,7.00
2019-01-03T13:45:14.533Z,7.00
2019-01-03T13:47:43.950Z,7.00
2019-01-03T13:50:13.361Z,6.90
2019-01-03T13:52:42.803Z,6.90
2019-01-03T13:55:12.230Z,6.90
2019-01-03T13:57:41.645Z,6.90
2019-01-03T14:00:11.689Z,6.80
2019-01-03T14:02:41.138Z,6.80
2019-01-03T14:05:10.557Z,6.80
2019-01-03T14:07:39.997Z,6.80
2019-01-03T14:10:09.400Z,6.70
2019-01-03T14:12:39.889Z,6.70
2019-01-03T14:15:09.288Z,6.60
2019-01-03T14:17:38.727Z,6.60
2019-01-03T14:20:10.863Z,6.60
2019-01-03T14:22:40.298Z,6.50
2019-01-03T14:25:09.757Z,6.50
2019-01-03T14:27:39.194Z,6.60
2019-01-03T14:30:10.029Z,6.60
2019-01-03T14:32:39.452Z,6.60
2019-01-03T14:35:08.869Z,6.70
2019-01-03T14:37:38.349Z,6.60
2019-01-03T14:40:08.651Z,6.60
2019-01-03T14:42:38.077Z,6.60
2019-01-03T14:45:07.671Z,6.50
2019-01-03T14:47:37.071Z,6.50
2019-01-03T14:50:08.737Z,6.50
2019-01-03T14:52:38.392Z,6.50
2019-01-03T14:55:08.569Z,6.60
2019-01-03T14:57:37.978Z,6.50
2019-01-03T15:00:09.626Z,6.40
2019-01-03T15:02:39.707Z,6.30
2019-01-03T15:05:13.934Z,6.20
2019-01-03T15:07:41.224Z,6.10
2019-01-03T15:10:10.628Z,6.10
2019-01-03T15:12:40.065Z,6.10
2019-01-03T15:15:09.581Z,6.00
2019-01-03T15:17:38.989Z,6.00
2019-01-03T15:20:10.325Z,6.00
2019-01-03T15:22:39.734Z,6.00
2019-01-03T15:25:09.145Z,5.90
2019-01-03T15:27:38.565Z,5.90
2019-01-03T15:30:09.693Z,5.80
2019-01-03T15:32:39.117Z,5.90
2019-01-03T15:35:08.565Z,5.90
2019-01-03T15:37:37.989Z,5.90
2019-01-03T15:40:07.629Z,5.80
2019-01-03T15:42:37.319Z,5.70
2019-01-03T15:45:08.598Z,5.70
2019-01-03T15:47:38.049Z,5.70
2019-01-03T15:50:07.674Z,5.80
2019-01-03T15:52:37.146Z,5.70
2019-01-03T15:55:06.582Z,5.80
2019-01-03T15:57:36.034Z,5.80
2019-01-03T16:00:07.000Z,5.90
2019-01-03T16:02:36.426Z,6.00
2019-01-03T16:05:06.521Z,6.00
2019-01-03T16:07:35.949Z,5.90
2019-01-03T16:10:05.613Z,5.80
2019-01-03T16:12:35.046Z,5.80
2019-01-03T16:15:04.636Z,5.70
2019-01-03T16:17:34.045Z,5.70
2019-01-03T16:20:04.052Z,5.60
2019-01-03T16:22:33.473Z,5.50
2019-01-03T16:25:04.149Z,5.50
2019-01-03T16:27:33.593Z,5.40
2019-01-03T16:30:03.263Z,5.40
2019-01-03T16:32:33.743Z,5.40
2019-01-03T16:35:03.316Z,5.40
2019-01-03T16:37:32.717Z,5.30
2019-01-03T16:40:03.239Z,5.30
2019-01-03T16:42:40.691Z,5.30
2019-01-03T16:45:10.781Z,5.40
2019-01-03T16:47:40.189Z,5.40
2019-01-03T16:50:12.306Z,5.40
2019-01-03T16:52:41.720Z,5.40
2019-01-03T16:55:11.134Z,5.50
2019-01-03T16:57:40.577Z,5.50
2019-01-03T17:00:11.553Z,5.50
2019-01-03T17:02:41.969Z,5.50
2019-01-03T17:05:11.431Z,5.40
2019-01-03T17:07:40.885Z,5.40
2019-01-03T17:10:13.290Z,5.40
2019-01-03T17:12:42.709Z,5.40
2019-01-03T17:15:12.137Z,5.30
2019-01-03T17:17:41.564Z,5.30
2019-01-03T17:20:11.385Z,5.30
2019-01-03T17:22:40.855Z,5.20
2019-01-03T17:25:12.521Z,5.20
2019-01-03T17:27:41.938Z,5.10
2019-01-03T17:30:12.120Z,5.10
2019-01-03T17:32:41.567Z,5.00
2019-01-03T17:35:12.082Z,5.00
2019-01-03T17:37:41.522Z,4.90
2019-01-03T17:40:12.699Z,4.90
2019-01-03T17:42:44.183Z,4.90
2019-01-03T17:45:13.573Z,4.80
2019-01-03T17:47:43.063Z,4.90
2019-01-03T17:50:12.538Z,5.00
2019-01-03T17:52:41.952Z,5.00
2019-01-03T17:55:11.445Z,5.20
2019-01-03T17:57:41.924Z,5.30
2019-01-03T18:00:14.698Z,5.40
2019-01-03T18:02:44.115Z,5.40
2019-01-03T18:05:13.513Z,5.50
2019-01-03T18:07:43.907Z,5.40
2019-01-03T18:10:13.867Z,5.40
2019-01-03T18:12:43.253Z,5.40
2019-01-03T18:15:12.685Z,5.40
2019-01-03T18:17:42.094Z,5.40
2019-01-03T18:20:14.453Z,5.40
2019-01-03T18:22:44.827Z,5.40
2019-01-03T18:25:14.242Z,5.40
2019-01-03T18:27:43.678Z,5.40
2019-01-03T18:30:13.525Z,5.40
2019-01-03T18:32:43.131Z,5.30
2019-01-03T18:35:13.525Z,5.20
2019-01-03T18:37:43.062Z,5.30
2019-01-03T18:40:14.652Z,5.20
2019-01-03T18:42:45.665Z,5.10
2019-01-03T18:45:18.261Z,5.20
2019-01-03T18:47:47.695Z,5.10
2019-01-03T18:50:18.953Z,5.20
2019-01-03T18:52:48.230Z,5.20
2019-01-03T18:55:17.689Z,5.10
2019-01-03T18:57:47.121Z,5.20
2019-01-03T19:00:16.538Z,5.20
2019-01-03T19:02:46.005Z,5.10
2019-01-03T19:05:15.433Z,5.10
2019-01-03T19:07:44.928Z,5.00
2019-01-03T19:10:14.364Z,5.00
2019-01-03T19:12:43.874Z,4.90
2019-01-03T19:15:13.337Z,5.00
2019-01-03T19:17:42.744Z,5.00
2019-01-03T19:20:12.237Z,5.10
2019-01-03T19:22:41.664Z,5.10
2019-01-03T19:25:13.857Z,5.10
2019-01-03T19:27:43.301Z,5.10
2019-01-03T19:30:12.741Z,5.10
2019-01-03T19:32:42.305Z,5.20
2019-01-03T19:35:11.906Z,5.20
2019-01-03T19:37:43.774Z,5.30
2019-01-03T19:40:14.238Z,5.30
2019-01-03T19:42:45.284Z,5.30
2019-01-03T19:45:14.730Z,5.40
2019-01-03T19:47:44.139Z,5.40
2019-01-03T19:50:16.357Z,5.40
2019-01-03T19:52:45.856Z,5.40
2019-01-03T19:55:15.303Z,5.40
2019-01-03T19:57:44.716Z,5.50
2019-01-03T20:00:16.152Z,5.50
2019-01-03T20:02:46.185Z,5.50
2019-01-03T20:05:15.633Z,5.50
2019-01-03T20:07:45.806Z,5.40
2019-01-03T20:10:15.358Z,5.40
2019-01-03T20:12:44.833Z,5.30
2019-01-03T20:15:14.806Z,5.20
2019-01-03T20:17:44.227Z,5.10
2019-01-03T20:20:13.791Z,5.10
2019-01-03T20:22:43.251Z,5.10
2019-01-03T20:25:12.675Z,5.00
2019-01-03T20:27:42.102Z,5.00
2019-01-03T20:30:11.656Z,5.00
2019-01-03T20:32:41.102Z,5.00
2019-01-03T20:35:10.547Z,4.90
2019-01-03T20:37:40.089Z,5.00
2019-01-03T20:40:09.771Z,5.10
2019-01-03T20:42:39.196Z,5.20
2019-01-03T20:45:10.510Z,5.20
2019-01-03T20:47:39.933Z,5.30
2019-01-03T20:50:10.935Z,5.40
2019-01-03T20:52:40.426Z,5.40
2019-01-03T20:55:09.870Z,5.40
2019-01-03T20:57:39.329Z,5.40
2019-01-03T21:00:12.188Z,5.40
2019-01-03T21:02:41.606Z,5.30
2019-01-03T21:05:12.186Z,5.30
2019-01-03T21:07:41.618Z,5.20
2019-01-03T21:10:12.488Z,5.20
2019-01-03T21:12:42.009Z,5.10
2019-01-03T21:15:14.414Z,5.00
2019-01-03T21:17:44.098Z,5.00
2019-01-03T21:20:14.347Z,4.90
2019-01-03T21:22:43.817Z,4.90
2019-01-03T21:25:13.769Z,4.80
2019-01-03T21:27:43.350Z,4.80
2019-01-03T21:30:15.243Z,4.70
2019-01-03T21:32:44.724Z,4.70
2019-01-03T21:35:14.134Z,4.80
2019-01-03T21:37:43.547Z,4.80
2019-01-03T21:40:13.096Z,4.90
2019-01-03T21:42:42.515Z,5.00
2019-01-03T21:45:12.006Z,5.10
2019-01-03T21:47:41.426Z,5.20
2019-01-03T21:50:12.011Z,5.30
2019-01-03T21:52:41.418Z,5.30
2019-01-03T21:55:11.144Z,5.30
2019-01-03T21:57:41.531Z,5.30
2019-01-03T22:00:12.602Z,5.30
2019-01-03T22:02:42.442Z,5.30
2019-01-03T22:05:12.851Z,5.20
2019-01-03T22:07:42.277Z,5.20
2019-01-03T22:10:11.742Z,5.10
2019-01-03T22:12:41.279Z,5.10
2019-01-03T22:15:11.104Z,5.00
2019-01-03T22:17:40.497Z,5.00
2019-01-03T22:20:10.861Z,5.00
2019-01-03T22:22:40.320Z,5.00
2019-01-03T22:25:09.733Z,4.90
2019-01-03T22:27:39.168Z,4.90
2019-01-03T22:30:10.270Z,5.00
2019-01-03T22:32:39.903Z,5.00
2019-01-03T22:35:09.385Z,5.00
2019-01-03T22:37:38.817Z,5.00
2019-01-03T22:40:08.852Z,4.90
2019-01-03T22:42:38.285Z,5.00
2019-01-03T22:45:09.704Z,5.00
2019-01-03T22:47:39.166Z,4.90
2019-01-03T22:50:09.546Z,5.00
2019-01-03T22:52:39.036Z,4.90
2019-01-03T22:55:08.464Z,5.00
2019-01-03T22:57:37.887Z,5.10
2019-01-03T23:00:23.389Z,5.20
2019-01-03T23:02:52.785Z,5.30
2019-01-03T23:05:22.351Z,5.30
2019-01-03T23:08:11.297Z,5.30
2019-01-03T23:10:40.753Z,5.20
2019-01-03T23:13:10.299Z,5.20
2019-01-03T23:15:39.726Z,5.10
2019-01-03T23:18:09.241Z,5.10
2019-01-03T23:20:38.690Z,5.10
2019-01-03T23:23:08.109Z,5.10
2019-01-03T23:25:37.535Z,5.20
2019-01-03T23:28:06.949Z,5.10
2019-01-03T23:30:36.373Z,5.10
2019-01-03T23:33:05.809Z,5.20
2019-01-03T23:35:35.237Z,5.20
2019-01-03T23:38:04.644Z,5.20
2019-01-03T23:40:34.099Z,5.20
2019-01-03T23:43:03.535Z,5.20
2019-01-03T23:45:33.293Z,5.30
2019-01-03T23:48:02.791Z,5.30
2019-01-03T23:50:36.123Z,5.30
2019-01-03T23:53:05.833Z,5.30
2019-01-03T23:55:38.245Z,5.30
2019-01-03T23:58:07.669Z,5.30
